createdAt,value
2017-08-18T00:02:18.603Z,54.47
2017-08-18T00:04:44.651Z,63.90
2017-08-18T00:07:10.742Z,50.17
2017-08-18T00:09:36.838Z,53.50
2017-08-18T00:12:02.878Z,59.00
2017-08-18T00:14:28.938Z,57.77
2017-08-18T00:16:54.965Z,50.80
2017-08-18T00:19:21.030Z,54.90
2017-08-18T00:21:47.084Z,53.10
2017-08-18T00:24:13.134Z,65.47
2017-08-18T00:26:39.177Z,62.77
2017-08-18T00:29:05.226Z,53.67
2017-08-18T00:31:31.271Z,61.80
2017-08-18T00:33:58.764Z,56.70
2017-08-18T00:36:24.846Z,57.70
2017-08-18T00:38:50.934Z,61.13
2017-08-18T00:41:16.983Z,57.20
2017-08-18T00:43:43.047Z,51.53
2017-08-18T00:46:09.077Z,58.47
2017-08-18T00:48:35.153Z,58.63
2017-08-18T00:51:01.203Z,52.87
2017-08-18T00:53:27.976Z,52.77
2017-08-18T00:55:54.057Z,45.97
2017-08-18T00:58:20.117Z,58.47
2017-08-18T01:00:46.177Z,53.33
2017-08-18T01:03:12.240Z,55.93
2017-08-18T01:05:38.297Z,55.57
2017-08-18T01:08:04.365Z,64.23
2017-08-18T01:10:30.413Z,63.80
2017-08-18T01:12:56.468Z,62.53
2017-08-18T01:15:22.514Z,62.07
2017-08-18T01:17:49.312Z,55.73
2017-08-18T01:20:15.377Z,59.93
2017-08-18T01:22:41.488Z,60.33
2017-08-18T01:25:07.537Z,56.20
2017-08-18T01:27:33.613Z,61.50
2017-08-18T01:29:59.669Z,60.17
2017-08-18T01:32:25.738Z,58.67
2017-08-18T01:34:51.785Z,54.17
2017-08-18T01:37:17.862Z,61.07
2017-08-18T01:39:43.910Z,69.93
2017-08-18T01:42:09.961Z,70.27
2017-08-18T01:44:36.025Z,67.43
2017-08-18T01:47:02.093Z,62.83
2017-08-18T01:49:28.161Z,71.67
2017-08-18T01:51:54.193Z,70.27
2017-08-18T01:54:20.241Z,66.80
2017-08-18T01:56:46.293Z,56.70
2017-08-18T01:59:12.353Z,63.80
2017-08-18T02:01:38.404Z,54.00
2017-08-18T02:04:05.212Z,57.83
2017-08-18T02:06:31.272Z,54.37
2017-08-18T02:08:57.364Z,55.40
2017-08-18T02:11:23.419Z,64.47
2017-08-18T02:13:49.523Z,67.63
2017-08-18T02:16:15.608Z,63.60
2017-08-18T02:18:41.661Z,54.80
2017-08-18T02:21:07.701Z,54.20
2017-08-18T02:23:33.726Z,54.17
2017-08-18T02:25:59.793Z,55.37
2017-08-18T02:28:25.840Z,57.87
2017-08-18T02:30:52.616Z,55.10
2017-08-18T02:33:18.693Z,51.80
2017-08-18T02:35:44.756Z,56.67
2017-08-18T02:38:10.800Z,52.30
2017-08-18T02:40:36.884Z,53.50
2017-08-18T02:43:02.947Z,52.20
2017-08-18T02:45:29.004Z,54.27
2017-08-18T02:47:55.084Z,51.50
2017-08-18T02:50:21.199Z,54.10
2017-08-18T02:52:47.280Z,54.93
2017-08-18T02:55:13.333Z,59.17
2017-08-18T02:57:39.448Z,49.30
2017-08-18T03:00:05.556Z,54.17
2017-08-18T03:02:32.365Z,50.80
2017-08-18T03:04:58.423Z,55.13
2017-08-18T03:07:31.636Z,52.57
2017-08-18T03:09:57.684Z,56.23
2017-08-18T03:12:24.473Z,48.97
2017-08-18T03:14:50.549Z,53.23
2017-08-18T03:17:16.594Z,48.27
2017-08-18T03:19:42.713Z,51.47
2017-08-18T03:22:08.753Z,55.97
2017-08-18T03:24:35.565Z,51.53
2017-08-18T03:27:01.621Z,49.67
2017-08-18T03:29:27.669Z,49.27
2017-08-18T03:31:53.762Z,59.03
2017-08-18T03:34:19.836Z,51.20
2017-08-18T03:36:45.960Z,62.27
2017-08-18T03:39:12.037Z,54.47
2017-08-18T03:41:38.128Z,56.13
2017-08-18T03:44:04.177Z,55.30
2017-08-18T03:46:30.205Z,72.27
2017-08-18T03:48:56.285Z,60.00
2017-08-18T03:51:22.342Z,61.67
2017-08-18T03:53:48.380Z,61.23
2017-08-18T03:56:14.447Z,62.13
2017-08-18T03:58:40.517Z,54.80
2017-08-18T04:01:07.345Z,71.60
2017-08-18T04:03:33.405Z,57.13
2017-08-18T04:05:59.461Z,55.67
2017-08-18T04:08:26.229Z,54.90
2017-08-18T04:10:52.320Z,55.90
2017-08-18T04:13:18.376Z,55.57
2017-08-18T04:15:44.430Z,53.17
2017-08-18T04:18:10.480Z,72.43
2017-08-18T04:20:36.551Z,58.00
2017-08-18T04:23:02.601Z,60.87
2017-08-18T04:25:28.658Z,59.07
2017-08-18T04:27:54.701Z,57.17
2017-08-18T04:30:20.744Z,58.20
2017-08-18T04:32:46.824Z,61.60
2017-08-18T04:35:12.873Z,68.37
2017-08-18T04:37:38.957Z,69.97
2017-08-18T04:40:05.001Z,60.00
2017-08-18T04:42:31.068Z,58.40
2017-08-18T04:44:57.114Z,58.00
2017-08-18T04:47:23.917Z,58.47
2017-08-18T04:49:49.955Z,64.30
2017-08-18T04:52:16.036Z,51.60
2017-08-18T04:54:42.087Z,66.10
2017-08-18T04:57:08.880Z,60.20
2017-08-18T04:59:34.926Z,65.17
2017-08-18T05:02:00.977Z,57.37
2017-08-18T05:04:27.132Z,52.17
2017-08-18T05:06:53.991Z,64.73
2017-08-18T05:09:20.032Z,57.13
2017-08-18T05:11:46.102Z,53.43
2017-08-18T05:14:12.149Z,50.30
2017-08-18T05:16:38.196Z,53.37
2017-08-18T05:19:04.989Z,59.80
2017-08-18T05:21:31.025Z,55.03
2017-08-18T05:23:57.809Z,50.43
2017-08-18T05:26:23.846Z,53.50
2017-08-18T05:28:49.882Z,50.57
2017-08-18T05:31:15.926Z,53.17
2017-08-18T05:33:41.973Z,54.03
2017-08-18T05:36:08.025Z,52.30
2017-08-18T05:38:34.069Z,51.23
2017-08-18T05:41:00.125Z,53.87
2017-08-18T05:43:26.193Z,81.47
2017-08-18T05:45:52.241Z,47.60
2017-08-18T05:48:19.024Z,45.87
2017-08-18T05:50:45.117Z,56.60
2017-08-18T05:53:11.180Z,55.00
2017-08-18T05:55:37.956Z,49.80
2017-08-18T05:58:04.084Z,53.67
2017-08-18T06:00:30.148Z,49.00
2017-08-18T06:02:56.223Z,47.57
2017-08-18T06:05:22.284Z,61.67
2017-08-18T06:07:48.397Z,42.17
2017-08-18T06:10:14.461Z,45.90
2017-08-18T06:12:40.520Z,49.70
2017-08-18T06:15:06.611Z,48.33
2017-08-18T06:17:32.653Z,45.00
2017-08-18T06:19:58.704Z,47.47
2017-08-18T06:22:24.784Z,45.60
2017-08-18T06:24:50.847Z,52.63
2017-08-18T06:27:16.889Z,47.53
2017-08-18T06:29:42.956Z,51.10
2017-08-18T06:32:09.013Z,41.23
2017-08-18T06:34:35.092Z,46.50
2017-08-18T06:37:01.156Z,42.87
2017-08-18T06:39:27.939Z,42.97
2017-08-18T06:41:53.974Z,34.77
2017-08-18T06:44:20.041Z,41.10
2017-08-18T06:46:46.067Z,43.20
2017-08-18T06:49:12.228Z,46.00
2017-08-18T06:51:38.295Z,37.40
2017-08-18T06:54:04.345Z,44.73
2017-08-18T06:56:30.400Z,35.10
2017-08-18T06:58:56.433Z,38.87
2017-08-18T07:01:22.491Z,39.50
2017-08-18T07:03:48.558Z,36.77
2017-08-18T07:06:14.638Z,36.33
2017-08-18T07:08:40.677Z,36.00
2017-08-18T07:11:06.741Z,38.13
2017-08-18T07:13:32.777Z,31.70
2017-08-18T07:15:58.837Z,33.37
2017-08-18T07:18:25.633Z,33.50
2017-08-18T07:20:51.690Z,36.40
2017-08-18T07:23:17.741Z,36.70
2017-08-18T07:25:43.805Z,31.90
2017-08-18T07:28:09.839Z,28.93
2017-08-18T07:30:35.909Z,34.03
2017-08-18T07:33:01.977Z,24.40
2017-08-18T07:35:28.029Z,31.67
2017-08-18T07:37:54.078Z,25.37
2017-08-18T07:40:20.114Z,24.50
2017-08-18T07:42:46.181Z,25.93
2017-08-18T07:45:12.249Z,23.37
2017-08-18T07:47:38.287Z,24.00
2017-08-18T07:50:04.311Z,25.03
2017-08-18T07:52:30.365Z,26.97
2017-08-18T07:54:56.401Z,23.53
2017-08-18T07:57:22.445Z,21.90
2017-08-18T07:59:48.493Z,26.43
2017-08-18T08:02:14.551Z,24.33
2017-08-18T08:04:40.588Z,22.83
2017-08-18T08:07:06.633Z,26.17
2017-08-18T08:09:32.720Z,37.20
2017-08-18T08:11:58.762Z,23.53
2017-08-18T08:14:24.861Z,21.27
2017-08-18T08:16:51.673Z,25.43
2017-08-18T08:19:17.720Z,23.53
2017-08-18T08:21:43.778Z,21.87
2017-08-18T08:24:09.934Z,21.03
2017-08-18T08:26:35.977Z,18.93
2017-08-18T08:29:02.102Z,26.10
2017-08-18T08:31:28.184Z,23.00
2017-08-18T08:33:54.253Z,27.37
2017-08-18T08:36:20.333Z,23.30
2017-08-18T08:38:46.417Z,21.00
2017-08-18T08:41:12.497Z,21.07
2017-08-18T08:43:38.576Z,21.70
2017-08-18T08:46:04.643Z,22.80
2017-08-18T08:48:30.709Z,33.10
2017-08-18T08:50:57.513Z,27.20
2017-08-18T08:53:23.581Z,25.90
2017-08-18T08:55:49.646Z,25.10
2017-08-18T08:58:15.736Z,25.17
2017-08-18T09:00:41.810Z,23.93
2017-08-18T09:03:07.891Z,25.53
2017-08-18T09:05:33.996Z,27.10
2017-08-18T09:08:00.037Z,26.53
2017-08-18T09:10:26.080Z,21.00
2017-08-18T09:12:52.133Z,19.63
2017-08-18T09:15:18.182Z,20.40
2017-08-18T09:17:44.244Z,24.90
2017-08-18T09:20:11.025Z,17.50
2017-08-18T09:22:37.066Z,15.80
2017-08-18T09:25:03.128Z,28.10
2017-08-18T09:27:29.216Z,14.70
2017-08-18T09:29:55.254Z,20.93
2017-08-18T09:32:21.294Z,21.47
2017-08-18T09:34:47.360Z,31.03
2017-08-18T09:37:13.410Z,19.07
2017-08-18T09:39:39.457Z,21.00
2017-08-18T09:42:05.485Z,25.90
2017-08-18T09:44:31.546Z,25.17
2017-08-18T09:46:57.609Z,21.00
2017-08-18T09:49:36.105Z,25.63
2017-08-18T09:55:18.211Z,24.13
2017-08-18T09:57:57.285Z,29.20
2017-08-18T10:00:38.389Z,21.40
2017-08-18T10:03:06.256Z,25.50
2017-08-18T10:05:32.270Z,24.43
2017-08-18T10:07:58.340Z,26.57
2017-08-18T10:10:24.330Z,27.00
2017-08-18T10:12:50.317Z,25.70
2017-08-18T10:15:16.302Z,33.20
2017-08-18T10:17:42.281Z,26.70
2017-08-18T10:20:09.017Z,25.40
2017-08-18T10:22:35.737Z,27.60
2017-08-18T10:25:02.498Z,38.27
2017-08-18T10:27:29.295Z,31.80
2017-08-18T10:29:56.599Z,28.67
2017-08-18T10:32:22.665Z,29.80
2017-08-18T10:34:48.709Z,29.37
2017-08-18T10:37:14.712Z,31.37
2017-08-18T10:39:40.692Z,34.20
2017-08-18T10:42:06.741Z,40.43
2017-08-18T10:44:32.768Z,37.10
2017-08-18T10:46:59.512Z,36.47
2017-08-18T10:49:25.540Z,35.90
2017-08-18T10:51:51.587Z,28.77
2017-08-18T10:54:17.579Z,38.07
2017-08-18T10:56:43.569Z,35.87
2017-08-18T10:59:09.619Z,33.73
2017-08-18T11:01:35.654Z,34.63
2017-08-18T11:04:02.418Z,27.00
2017-08-18T11:06:28.441Z,32.97
2017-08-18T11:08:54.489Z,33.27
2017-08-18T11:11:20.510Z,40.30
2017-08-18T11:13:46.502Z,39.23
2017-08-18T11:16:13.245Z,36.63
2017-08-18T11:18:39.996Z,39.63
2017-08-18T11:21:05.985Z,33.97
2017-08-18T11:23:33.086Z,34.17
2017-08-18T11:25:59.065Z,38.17
2017-08-18T11:28:25.082Z,38.97
2017-08-18T11:30:51.066Z,40.40
2017-08-18T11:33:17.070Z,40.20
2017-08-18T11:35:43.096Z,45.23
2017-08-18T11:38:09.148Z,48.23
2017-08-18T11:40:35.877Z,41.80
2017-08-18T11:43:01.877Z,35.70
2017-08-18T11:45:28.606Z,42.73
2017-08-18T11:47:55.337Z,39.80
2017-08-18T11:50:21.337Z,41.50
2017-08-18T11:52:47.360Z,41.97
2017-08-18T11:55:13.459Z,43.73
2017-08-18T11:57:39.437Z,36.10
2017-08-18T12:00:05.453Z,44.40
2017-08-18T12:02:31.457Z,42.90
2017-08-18T12:04:57.445Z,44.60
2017-08-18T12:07:23.489Z,44.10
2017-08-18T12:09:49.632Z,45.90
2017-08-18T12:12:15.644Z,39.83
2017-08-18T12:14:41.701Z,43.33
2017-08-18T12:17:07.733Z,48.20
2017-08-18T12:19:34.466Z,41.53
2017-08-18T12:22:01.213Z,47.53
2017-08-18T12:24:27.218Z,41.33
2017-08-18T12:26:53.225Z,43.47
2017-08-18T12:29:19.224Z,44.93
2017-08-18T12:31:45.256Z,38.97
2017-08-18T12:34:11.341Z,44.33
2017-08-18T12:36:37.340Z,45.97
2017-08-18T12:39:04.086Z,36.20
2017-08-18T12:41:30.100Z,35.47
2017-08-18T12:43:56.091Z,39.83
2017-08-18T12:46:22.093Z,39.53
2017-08-18T12:48:48.076Z,28.70
2017-08-18T12:51:14.076Z,33.30
2017-08-18T12:53:40.108Z,27.00
2017-08-18T12:56:06.104Z,32.50
2017-08-18T12:58:32.993Z,34.40
2017-08-18T13:00:58.993Z,33.37
2017-08-18T13:03:24.981Z,30.27
2017-08-18T13:05:50.976Z,27.23
2017-08-18T13:08:17.714Z,29.23
2017-08-18T13:10:43.739Z,25.13
2017-08-18T13:13:09.745Z,29.53
2017-08-18T13:15:35.751Z,36.33
2017-08-18T13:18:01.765Z,20.23
2017-08-18T13:20:27.793Z,21.53
2017-08-18T13:22:53.789Z,17.30
2017-08-18T13:25:19.837Z,19.53
2017-08-18T13:27:45.865Z,17.20
2017-08-18T13:30:11.885Z,18.67
2017-08-18T13:32:37.913Z,16.43
2017-08-18T13:35:03.986Z,17.30
2017-08-18T13:37:30.005Z,31.50
2017-08-18T13:39:56.799Z,23.53
2017-08-18T13:42:22.826Z,22.37
2017-08-18T13:44:48.873Z,17.83
2017-08-18T13:47:14.877Z,17.03
2017-08-18T13:49:40.905Z,16.97
2017-08-18T13:52:06.921Z,14.67
2017-08-18T13:54:32.913Z,15.80
2017-08-18T13:56:58.903Z,18.47
2017-08-18T13:59:24.911Z,15.13
2017-08-18T14:01:50.901Z,17.23
2017-08-18T14:04:16.882Z,13.97
2017-08-18T14:06:42.868Z,14.50
2017-08-18T14:09:08.889Z,19.53
2017-08-18T14:11:34.881Z,20.77
2017-08-18T14:14:00.872Z,14.63
2017-08-18T14:16:26.892Z,17.67
2017-08-18T14:18:52.889Z,16.63
2017-08-18T14:21:19.109Z,17.77
2017-08-18T14:23:45.113Z,15.77
2017-08-18T14:26:18.044Z,18.27
2017-08-18T14:28:44.121Z,19.73
2017-08-18T14:31:10.161Z,15.93
2017-08-18T14:33:36.185Z,21.30
2017-08-18T14:36:02.229Z,18.03
2017-08-18T14:38:29.033Z,17.40
2017-08-18T14:40:55.109Z,16.33
2017-08-18T14:43:21.173Z,16.17
2017-08-18T14:45:47.225Z,17.67
2017-08-18T14:48:13.373Z,20.57
2017-08-18T14:50:39.406Z,17.10
2017-08-18T14:53:05.457Z,22.60
2017-08-18T14:55:31.519Z,22.83
2017-08-18T14:57:57.595Z,16.67
2017-08-18T15:00:23.657Z,17.20
2017-08-18T15:02:49.783Z,17.20
2017-08-18T15:05:15.887Z,18.70
2017-08-18T15:07:41.948Z,15.83
2017-08-18T15:10:07.997Z,14.67
2017-08-18T15:12:34.056Z,25.60
2017-08-18T15:15:00.113Z,15.03
2017-08-18T15:17:26.181Z,16.20
2017-08-18T15:19:52.217Z,20.13
2017-08-18T15:22:18.282Z,17.27
2017-08-18T15:24:44.360Z,19.60
2017-08-18T15:27:10.423Z,22.37
2017-08-18T15:29:36.469Z,19.27
2017-08-18T15:32:02.510Z,17.80
2017-08-18T15:34:28.568Z,20.47
2017-08-18T15:36:55.378Z,19.53
2017-08-18T15:39:21.413Z,25.93
2017-08-18T15:41:48.173Z,19.97
2017-08-18T15:44:14.225Z,23.43
2017-08-18T15:46:41.036Z,21.13
2017-08-18T15:49:07.140Z,24.63
2017-08-18T15:51:33.189Z,23.87
2017-08-18T15:53:59.297Z,21.80
2017-08-18T15:56:26.061Z,25.00
2017-08-18T15:58:52.081Z,23.10
2017-08-18T16:01:18.125Z,20.83
2017-08-18T16:03:44.184Z,27.57
2017-08-18T16:06:10.277Z,20.80
2017-08-18T16:08:36.380Z,29.83
2017-08-18T16:11:02.460Z,28.07
2017-08-18T16:13:28.526Z,20.67
2017-08-18T16:15:54.681Z,27.00
2017-08-18T16:18:20.880Z,19.97
2017-08-18T16:20:46.929Z,21.40
2017-08-18T16:23:12.989Z,19.77
2017-08-18T16:25:39.228Z,53.00
2017-08-18T16:28:06.005Z,22.17
2017-08-18T16:30:32.117Z,22.27
2017-08-18T16:32:58.155Z,26.00
2017-08-18T16:35:24.224Z,20.70
2017-08-18T16:37:50.296Z,24.80
2017-08-18T16:40:16.457Z,28.67
2017-08-18T16:42:42.585Z,22.20
2017-08-18T16:45:08.639Z,24.37
2017-08-18T16:47:34.669Z,21.30
2017-08-18T16:50:00.900Z,19.17
2017-08-18T16:52:26.968Z,23.03
2017-08-18T16:54:53.014Z,22.53
2017-08-18T16:57:19.086Z,22.47
2017-08-18T16:59:45.914Z,23.50
2017-08-18T17:02:11.965Z,22.47
2017-08-18T17:04:38.001Z,26.40
2017-08-18T17:07:04.062Z,30.17
2017-08-18T17:09:30.089Z,27.10
2017-08-18T17:11:56.133Z,37.63
2017-08-18T17:14:22.181Z,30.80
2017-08-18T17:16:48.202Z,41.40
2017-08-18T17:19:14.258Z,36.57
2017-08-18T17:21:40.366Z,45.90
2017-08-18T17:24:06.401Z,37.60
2017-08-18T17:26:32.479Z,44.60
2017-08-18T17:28:58.530Z,34.23
2017-08-18T17:31:25.293Z,42.83
2017-08-18T17:33:51.367Z,35.47
2017-08-18T17:36:17.478Z,38.60
2017-08-18T17:38:43.537Z,40.87
2017-08-18T17:41:09.592Z,30.53
2017-08-18T17:43:35.696Z,39.37
2017-08-18T17:46:02.497Z,43.33
2017-08-18T17:48:28.616Z,37.40
2017-08-18T17:50:54.657Z,37.80
2017-08-18T17:53:20.723Z,40.27
2017-08-18T17:55:46.789Z,35.97
2017-08-18T17:58:12.830Z,39.20
2017-08-18T18:00:38.896Z,46.70
2017-08-18T18:03:04.992Z,40.60
2017-08-18T18:05:31.053Z,41.53
2017-08-18T18:07:57.081Z,35.50
2017-08-18T18:10:23.122Z,37.80
2017-08-18T18:12:49.893Z,46.10
2017-08-18T18:15:16.000Z,37.23
2017-08-18T18:17:42.045Z,40.00
2017-08-18T18:20:08.092Z,38.00
2017-08-18T18:22:34.133Z,36.20
2017-08-18T18:25:00.261Z,34.93
2017-08-18T18:27:26.309Z,38.37
2017-08-18T18:29:53.089Z,38.30
2017-08-18T18:32:19.153Z,37.77
2017-08-18T18:34:45.188Z,34.90
2017-08-18T18:37:11.232Z,35.73
2017-08-18T18:39:38.034Z,35.90
2017-08-18T18:42:04.073Z,42.63
2017-08-18T18:44:30.109Z,42.30
2017-08-18T18:46:56.157Z,34.53
2017-08-18T18:49:22.201Z,23.67
2017-08-18T18:51:48.989Z,19.17
2017-08-18T18:54:15.025Z,8.07
2017-08-18T18:56:41.093Z,13.90
2017-08-18T18:59:07.129Z,8.37
2017-08-18T19:01:33.183Z,9.10
2017-08-18T19:03:59.225Z,8.80
2017-08-18T19:06:26.085Z,8.67
2017-08-18T19:08:52.887Z,6.33
2017-08-18T19:11:18.921Z,4.77
2017-08-18T19:13:44.958Z,7.27
2017-08-18T19:16:10.998Z,11.20
2017-08-18T19:18:37.035Z,10.13
2017-08-18T19:21:03.073Z,11.73
2017-08-18T19:23:30.937Z,9.47
2017-08-18T19:25:56.989Z,6.80
2017-08-18T19:28:23.052Z,5.20
2017-08-18T19:30:49.177Z,3.73
2017-08-18T19:33:15.229Z,7.10
2017-08-18T19:35:41.277Z,9.87
2017-08-18T19:38:07.339Z,18.43
2017-08-18T19:40:33.382Z,6.50
2017-08-18T19:43:00.189Z,9.70
2017-08-18T19:45:26.335Z,7.50
2017-08-18T19:47:53.118Z,6.00
2017-08-18T19:50:19.177Z,6.43
2017-08-18T19:52:45.228Z,6.53
2017-08-18T19:55:11.278Z,6.77
2017-08-18T19:57:37.302Z,5.30
2017-08-18T20:00:03.808Z,5.90
2017-08-18T20:02:29.882Z,5.70
2017-08-18T20:04:55.970Z,6.33
2017-08-18T20:07:22.014Z,8.43
2017-08-18T20:09:48.054Z,6.40
2017-08-18T20:12:14.114Z,8.70
2017-08-18T20:14:40.170Z,5.13
2017-08-18T20:17:06.196Z,5.77
2017-08-18T20:19:32.249Z,6.03
2017-08-18T20:21:59.274Z,9.23
2017-08-18T20:24:25.721Z,5.50
2017-08-18T20:26:52.520Z,9.67
2017-08-18T20:29:18.574Z,8.73
2017-08-18T20:31:44.609Z,6.10
2017-08-18T20:34:10.657Z,8.13
2017-08-18T20:36:36.694Z,11.67
2017-08-18T20:39:03.542Z,11.07
2017-08-18T20:41:29.625Z,9.33
2017-08-18T20:43:56.433Z,7.00
2017-08-18T20:46:22.490Z,9.20
2017-08-18T20:48:48.553Z,8.77
2017-08-18T20:51:14.652Z,8.23
2017-08-18T20:53:40.709Z,11.03
2017-08-18T20:56:06.747Z,7.47
2017-08-18T20:58:32.837Z,8.00
2017-08-18T21:00:58.913Z,9.57
2017-08-18T21:03:25.732Z,12.00
2017-08-18T21:05:52.576Z,12.27
2017-08-18T21:08:18.657Z,11.40
2017-08-18T21:10:44.733Z,15.20
2017-08-18T21:13:10.802Z,18.13
2017-08-18T21:15:36.910Z,16.83
2017-08-18T21:18:03.773Z,15.03
2017-08-18T21:20:29.826Z,20.70
2017-08-18T21:22:55.874Z,17.27
2017-08-18T21:25:21.981Z,16.57
2017-08-18T21:27:48.778Z,18.07
2017-08-18T21:30:14.840Z,17.60
2017-08-18T21:32:40.890Z,22.20
2017-08-18T21:35:06.950Z,20.40
2017-08-18T21:37:33.066Z,23.43
2017-08-18T21:39:59.199Z,21.23
2017-08-18T21:42:25.266Z,22.07
2017-08-18T21:44:51.350Z,26.23
2017-08-18T21:47:18.210Z,20.83
2017-08-18T21:49:44.335Z,23.63
2017-08-18T21:52:10.441Z,30.90
2017-08-18T21:54:36.545Z,30.70
2017-08-18T21:57:02.631Z,27.10
2017-08-18T21:59:28.711Z,26.10
2017-08-18T22:01:54.812Z,30.90
2017-08-18T22:04:20.913Z,30.80
2017-08-18T22:06:46.990Z,32.63
2017-08-18T22:09:13.062Z,31.10
2017-08-18T22:11:39.146Z,43.63
2017-08-18T22:14:05.197Z,32.47
2017-08-18T22:16:31.257Z,32.37
2017-08-18T22:18:57.301Z,35.93
2017-08-18T22:21:23.345Z,36.87
2017-08-18T22:23:49.397Z,39.67
2017-08-18T22:26:15.446Z,41.93
2017-08-18T22:28:41.493Z,36.77
2017-08-18T22:31:07.564Z,45.70
2017-08-18T22:33:34.366Z,47.10
2017-08-18T22:36:00.413Z,40.60
2017-08-18T22:38:26.457Z,38.00
2017-08-18T22:40:52.553Z,43.03
2017-08-18T22:43:18.608Z,46.37
2017-08-18T22:45:44.681Z,44.13
2017-08-18T22:48:10.717Z,44.07
2017-08-18T22:50:36.777Z,41.93
2017-08-18T22:53:02.801Z,43.43
2017-08-18T22:55:28.883Z,44.27
2017-08-18T22:57:54.933Z,43.33
2017-08-18T23:00:21.004Z,40.40
2017-08-18T23:02:47.054Z,43.40
2017-08-18T23:05:13.095Z,54.93
2017-08-18T23:07:39.194Z,51.73
2017-08-18T23:10:05.257Z,51.83
2017-08-18T23:12:31.324Z,48.73
2017-08-18T23:14:57.371Z,48.50
2017-08-18T23:17:23.431Z,47.47
2017-08-18T23:19:49.469Z,54.90
2017-08-18T23:22:16.272Z,50.10
2017-08-18T23:24:42.337Z,55.03
2017-08-18T23:27:08.384Z,50.33
2017-08-18T23:29:34.428Z,44.53
2017-08-18T23:32:00.511Z,43.37
2017-08-18T23:34:26.584Z,46.30
2017-08-18T23:36:52.668Z,43.70
2017-08-18T23:39:18.728Z,51.97
2017-08-18T23:41:44.815Z,45.87
2017-08-18T23:44:10.878Z,40.87
2017-08-18T23:46:36.961Z,49.70
2017-08-18T23:51:56.329Z,45.03
2017-08-18T23:54:22.420Z,46.17
2017-08-18T23:56:48.473Z,56.77
2017-08-18T23:59:14.520Z,45.50
